(°C)
14°
13°
12°
10°
(°C)
10°
ENE
ENE
ENE
ENE
ENE
NE
NE
(km/h)
17-33
17-31
17-25
17-26
16-27
16-28
16-26
(mm)
0
0
0
0
0
0
0
(%)
0
0
0
0
0
0
0

Elevazione del sole

/ -28.3°
sun-icon
UV 4
06:14
19:51
Luna crescente (16°)
07:03
21:14

METAR per 48.78°N 44.34°E (URWW)

Ora Condizioni Temperatura/
Punto di rugiada
Vento Visibilità Tempo Nuvole Pressione Cambiamento Grezzo
VFR 15°C / -3°C 130º 10kt >10km - Clouds and Visibility OK 1023 No Significant change. Runway 06: Clear and dry, 1-10% contamination with <1mm, friction coefficient 0.70. URWW 131900Z 13005MPS CAVOK 15/M03 Q1023 R06/010070 NOSIG
VFR 15°C / -2°C 110º 10kt >10km - Clouds and Visibility OK 1023 No Significant change. Runway 06: Clear and dry, 1-10% contamination with <1mm, friction coefficient 0.70. URWW 131830Z 11005MPS CAVOK 15/M02 Q1023 R06/010070 NOSIG
VFR 16°C / -2°C 110º 10kt >10km - Clouds and Visibility OK 1023 No Significant change. Runway 06: Clear and dry, 1-10% contamination with <1mm, friction coefficient 0.70. URWW 131800Z 11005MPS CAVOK 16/M02 Q1023 R06/010070 NOSIG
VFR 17°C / -2°C 110º 12kt >10km - Clouds and Visibility OK 1023 No Significant change. Runway 06: Clear and dry, 1-10% contamination with <1mm, friction coefficient 0.70. URWW 131730Z 11006MPS CAVOK 17/M02 Q1023 R06/010070 NOSIG
VFR 18°C / -2°C 100º 12kt >10km - Clouds and Visibility OK 1023 No Significant change. Runway 06: Clear and dry, 1-10% contamination with <1mm, friction coefficient 0.70. URWW 131700Z 10006MPS CAVOK 18/M02 Q1023 R06/010070 NOSIG
VFR 17°C / -2°C 100º 10kt >10km - Clouds and Visibility OK 1023 No Significant change. Runway 06: Clear and dry, 1-10% contamination with <1mm, friction coefficient 0.70. URWW 131630Z 10005MPS CAVOK 17/M02 Q1023 R06/010070 NOSIG
VFR 17°C / -2°C 110º variable 060º to 130º 10kt >10km - Clouds and Visibility OK 1023 No Significant change. Runway 06: Clear and dry, 1-10% contamination with <1mm, friction coefficient 0.70. URWW 131600Z 11005MPS 060V130 CAVOK 17/M02 Q1023 R06/010070 NOSIG
VFR 18°C / -3°C 120º 8kt >10km - Clouds and Visibility OK 1022 No Significant change. Runway 06: Clear and dry, 1-10% contamination with <1mm, friction coefficient 0.70. URWW 131530Z 12004MPS CAVOK 18/M03 Q1022 R06/010070 NOSIG
VFR 21°C / -4°C 120º 12kt >10km - Clouds and Visibility OK 1022 No Significant change. Runway 06: Clear and dry, 1-10% contamination with <1mm, friction coefficient 0.70. URWW 131500Z 12006MPS CAVOK 21/M04 Q1022 R06/010070 NOSIG
VFR 22°C / -4°C 100º 14kt >10km - Clouds and Visibility OK 1023 No Significant change. Runway 06: Clear and dry, 1-10% contamination with <1mm, friction coefficient 0.70. URWW 131430Z 10007MPS CAVOK 22/M04 Q1023 R06/010070 NOSIG
VFR 23°C / -5°C 90º 17kt >10km - Clouds and Visibility OK 1023 Temporary: Visibility 3000. Smoke . . Runway 06: Clear and dry, 1-10% contamination with <1mm, friction coefficient 0.70. URWW 131400Z 09009MPS CAVOK 23/M05 Q1023 R06/010070 TEMPO 3000 FU
VFR 23°C / -3°C 110º 17kt Gust 27kt >10km - Clouds and Visibility OK 1023 Temporary: Visibility 3000. Smoke . . Runway 06: Clear and dry, 1-10% contamination with <1mm, friction coefficient 0.70. URWW 131330Z 11009G14MPS CAVOK 23/M03 Q1023 R06/010070 TEMPO 3000 FU
VFR 24°C / -6°C 120º 16kt >10km - Clouds and Visibility OK 1023 No Significant change. Runway 06: Clear and dry, 1-10% contamination with <1mm, friction coefficient 0.70. URWW 131300Z 12008MPS CAVOK 24/M06 Q1023 R06/010070 NOSIG
VFR 24°C / -4°C 130º 16kt >10km - Clouds and Visibility OK 1023 No Significant change. Runway 06: Clear and dry, 1-10% contamination with <1mm, friction coefficient 0.70. URWW 131230Z 13008MPS CAVOK 24/M04 Q1023 R06/010070 NOSIG
VFR 24°C / -5°C 150º 17kt >10km - Clouds and Visibility OK 1024 No Significant change. Runway 06: Clear and dry, 1-10% contamination with <1mm, friction coefficient 0.70. URWW 131200Z 15009MPS CAVOK 24/M05 Q1024 R06/010070 NOSIG
VFR 24°C / -7°C 140º 19kt >10km - Clouds and Visibility OK 1024 No Significant change. Runway 06: Clear and dry, 1-10% contamination with <1mm, friction coefficient 0.70. URWW 131130Z 14010MPS CAVOK 24/M07 Q1024 R06/010070 NOSIG
VFR 24°C / -5°C 140º 19kt >10km - Clouds and Visibility OK 1024 No Significant change. Runway 06: Clear and dry, 1-10% contamination with <1mm, friction coefficient 0.70. URWW 131100Z 14010MPS CAVOK 24/M05 Q1024 R06/010070 NOSIG
VFR 25°C / -5°C 130º 21kt >10km - Clouds and Visibility OK 1024 No Significant change. Runway 06: Clear and dry, 1-10% contamination with <1mm, friction coefficient 0.70. URWW 131030Z 13011MPS CAVOK 25/M05 Q1024 R06/010070 NOSIG
VFR 24°C / -3°C 130º 17kt Gust 27kt >10km - Clouds and Visibility OK 1024 No Significant change. Runway 06: Clear and dry, 1-10% contamination with <1mm, friction coefficient 0.70. URWW 131000Z 13009G14MPS CAVOK 24/M03 Q1024 R06/010070 NOSIG
VFR 24°C / 0°C 150º 16kt >10km - Clouds and Visibility OK 1025 No Significant change. Runway 06: Clear and dry, 1-10% contamination with <1mm, friction coefficient 0.70. URWW 130930Z 15008MPS CAVOK 24/M00 Q1025 R06/010070 NOSIG
VFR 23°C / 0°C 130º 16kt >10km - Clouds and Visibility OK 1025 No Significant change. Runway 06: Clear and dry, 1-10% contamination with <1mm, friction coefficient 0.70. URWW 130900Z 13008MPS CAVOK 23/M00 Q1025 R06/010070 NOSIG
VFR 22°C / 1°C 110º 17kt >10km - Clouds and Visibility OK 1025 No Significant change. Runway 06: Clear and dry, 1-10% contamination with <1mm, friction coefficient 0.70. URWW 130830Z 11009MPS CAVOK 22/01 Q1025 R06/010070 NOSIG
VFR 22°C / 2°C 120º 16kt >10km - Clouds and Visibility OK 1025 No Significant change. Runway 06: Clear and dry, 1-10% contamination with <1mm, friction coefficient 0.70. URWW 130800Z 12008MPS CAVOK 22/02 Q1025 R06/010070 NOSIG
VFR 20°C / 1°C 120º 14kt >10km - Clouds and Visibility OK 1025 No Significant change. Runway 06: Clear and dry, 1-10% contamination with <1mm, friction coefficient 0.70. URWW 130730Z 12007MPS CAVOK 20/01 Q1025 R06/010070 NOSIG

VFR

15°C / -3°C

[Più]
Vento 130º 10kt
Visibilità >10km
Tempo -
Nuvole Clouds and Visibility OK
Pressione 1023
Cambiamento No Significant change. Runway 06: Clear and dry, 1-10% contamination with <1mm, friction coefficient 0.70.
Grezzo URWW 131900Z 13005MPS CAVOK 15/M03 Q1023 R06/010070 NOSIG

VFR

15°C / -2°C

[Più]
Vento 110º 10kt
Visibilità >10km
Tempo -
Nuvole Clouds and Visibility OK
Pressione 1023
Cambiamento No Significant change. Runway 06: Clear and dry, 1-10% contamination with <1mm, friction coefficient 0.70.
Grezzo URWW 131830Z 11005MPS CAVOK 15/M02 Q1023 R06/010070 NOSIG

VFR

16°C / -2°C

[Più]
Vento 110º 10kt
Visibilità >10km
Tempo -
Nuvole Clouds and Visibility OK
Pressione 1023
Cambiamento No Significant change. Runway 06: Clear and dry, 1-10% contamination with <1mm, friction coefficient 0.70.
Grezzo URWW 131800Z 11005MPS CAVOK 16/M02 Q1023 R06/010070 NOSIG

VFR

17°C / -2°C

[Più]
Vento 110º 12kt
Visibilità >10km
Tempo -
Nuvole Clouds and Visibility OK
Pressione 1023
Cambiamento No Significant change. Runway 06: Clear and dry, 1-10% contamination with <1mm, friction coefficient 0.70.
Grezzo URWW 131730Z 11006MPS CAVOK 17/M02 Q1023 R06/010070 NOSIG

VFR

18°C / -2°C

[Più]
Vento 100º 12kt
Visibilità >10km
Tempo -
Nuvole Clouds and Visibility OK
Pressione 1023
Cambiamento No Significant change. Runway 06: Clear and dry, 1-10% contamination with <1mm, friction coefficient 0.70.
Grezzo URWW 131700Z 10006MPS CAVOK 18/M02 Q1023 R06/010070 NOSIG

VFR

17°C / -2°C

[Più]
Vento 100º 10kt
Visibilità >10km
Tempo -
Nuvole Clouds and Visibility OK
Pressione 1023
Cambiamento No Significant change. Runway 06: Clear and dry, 1-10% contamination with <1mm, friction coefficient 0.70.
Grezzo URWW 131630Z 10005MPS CAVOK 17/M02 Q1023 R06/010070 NOSIG

VFR

17°C / -2°C

[Più]
Vento 110º variable 060º to 130º 10kt
Visibilità >10km
Tempo -
Nuvole Clouds and Visibility OK
Pressione 1023
Cambiamento No Significant change. Runway 06: Clear and dry, 1-10% contamination with <1mm, friction coefficient 0.70.
Grezzo URWW 131600Z 11005MPS 060V130 CAVOK 17/M02 Q1023 R06/010070 NOSIG

VFR

18°C / -3°C

[Più]
Vento 120º 8kt
Visibilità >10km
Tempo -
Nuvole Clouds and Visibility OK
Pressione 1022
Cambiamento No Significant change. Runway 06: Clear and dry, 1-10% contamination with <1mm, friction coefficient 0.70.
Grezzo URWW 131530Z 12004MPS CAVOK 18/M03 Q1022 R06/010070 NOSIG

VFR

21°C / -4°C

[Più]
Vento 120º 12kt
Visibilità >10km
Tempo -
Nuvole Clouds and Visibility OK
Pressione 1022
Cambiamento No Significant change. Runway 06: Clear and dry, 1-10% contamination with <1mm, friction coefficient 0.70.
Grezzo URWW 131500Z 12006MPS CAVOK 21/M04 Q1022 R06/010070 NOSIG

VFR

22°C / -4°C

[Più]
Vento 100º 14kt
Visibilità >10km
Tempo -
Nuvole Clouds and Visibility OK
Pressione 1023
Cambiamento No Significant change. Runway 06: Clear and dry, 1-10% contamination with <1mm, friction coefficient 0.70.
Grezzo URWW 131430Z 10007MPS CAVOK 22/M04 Q1023 R06/010070 NOSIG

VFR

23°C / -5°C

[Più]
Vento 90º 17kt
Visibilità >10km
Tempo -
Nuvole Clouds and Visibility OK
Pressione 1023
Cambiamento Temporary: Visibility 3000. Smoke . . Runway 06: Clear and dry, 1-10% contamination with <1mm, friction coefficient 0.70.
Grezzo URWW 131400Z 09009MPS CAVOK 23/M05 Q1023 R06/010070 TEMPO 3000 FU

VFR

23°C / -3°C

[Più]
Vento 110º 17kt Gust 27kt
Visibilità >10km
Tempo -
Nuvole Clouds and Visibility OK
Pressione 1023
Cambiamento Temporary: Visibility 3000. Smoke . . Runway 06: Clear and dry, 1-10% contamination with <1mm, friction coefficient 0.70.
Grezzo URWW 131330Z 11009G14MPS CAVOK 23/M03 Q1023 R06/010070 TEMPO 3000 FU

VFR

24°C / -6°C

[Più]
Vento 120º 16kt
Visibilità >10km
Tempo -
Nuvole Clouds and Visibility OK
Pressione 1023
Cambiamento No Significant change. Runway 06: Clear and dry, 1-10% contamination with <1mm, friction coefficient 0.70.
Grezzo URWW 131300Z 12008MPS CAVOK 24/M06 Q1023 R06/010070 NOSIG

VFR

24°C / -4°C

[Più]
Vento 130º 16kt
Visibilità >10km
Tempo -
Nuvole Clouds and Visibility OK
Pressione 1023
Cambiamento No Significant change. Runway 06: Clear and dry, 1-10% contamination with <1mm, friction coefficient 0.70.
Grezzo URWW 131230Z 13008MPS CAVOK 24/M04 Q1023 R06/010070 NOSIG

VFR

24°C / -5°C

[Più]
Vento 150º 17kt
Visibilità >10km
Tempo -
Nuvole Clouds and Visibility OK
Pressione 1024
Cambiamento No Significant change. Runway 06: Clear and dry, 1-10% contamination with <1mm, friction coefficient 0.70.
Grezzo URWW 131200Z 15009MPS CAVOK 24/M05 Q1024 R06/010070 NOSIG

VFR

24°C / -7°C

[Più]
Vento 140º 19kt
Visibilità >10km
Tempo -
Nuvole Clouds and Visibility OK
Pressione 1024
Cambiamento No Significant change. Runway 06: Clear and dry, 1-10% contamination with <1mm, friction coefficient 0.70.
Grezzo URWW 131130Z 14010MPS CAVOK 24/M07 Q1024 R06/010070 NOSIG

VFR

24°C / -5°C

[Più]
Vento 140º 19kt
Visibilità >10km
Tempo -
Nuvole Clouds and Visibility OK
Pressione 1024
Cambiamento No Significant change. Runway 06: Clear and dry, 1-10% contamination with <1mm, friction coefficient 0.70.
Grezzo URWW 131100Z 14010MPS CAVOK 24/M05 Q1024 R06/010070 NOSIG

VFR

25°C / -5°C

[Più]
Vento 130º 21kt
Visibilità >10km
Tempo -
Nuvole Clouds and Visibility OK
Pressione 1024
Cambiamento No Significant change. Runway 06: Clear and dry, 1-10% contamination with <1mm, friction coefficient 0.70.
Grezzo URWW 131030Z 13011MPS CAVOK 25/M05 Q1024 R06/010070 NOSIG

VFR

24°C / -3°C

[Più]
Vento 130º 17kt Gust 27kt
Visibilità >10km
Tempo -
Nuvole Clouds and Visibility OK
Pressione 1024
Cambiamento No Significant change. Runway 06: Clear and dry, 1-10% contamination with <1mm, friction coefficient 0.70.
Grezzo URWW 131000Z 13009G14MPS CAVOK 24/M03 Q1024 R06/010070 NOSIG

VFR

24°C / 0°C

[Più]
Vento 150º 16kt
Visibilità >10km
Tempo -
Nuvole Clouds and Visibility OK
Pressione 1025
Cambiamento No Significant change. Runway 06: Clear and dry, 1-10% contamination with <1mm, friction coefficient 0.70.
Grezzo URWW 130930Z 15008MPS CAVOK 24/M00 Q1025 R06/010070 NOSIG

VFR

23°C / 0°C

[Più]
Vento 130º 16kt
Visibilità >10km
Tempo -
Nuvole Clouds and Visibility OK
Pressione 1025
Cambiamento No Significant change. Runway 06: Clear and dry, 1-10% contamination with <1mm, friction coefficient 0.70.
Grezzo URWW 130900Z 13008MPS CAVOK 23/M00 Q1025 R06/010070 NOSIG

VFR

22°C / 1°C

[Più]
Vento 110º 17kt
Visibilità >10km
Tempo -
Nuvole Clouds and Visibility OK
Pressione 1025
Cambiamento No Significant change. Runway 06: Clear and dry, 1-10% contamination with <1mm, friction coefficient 0.70.
Grezzo URWW 130830Z 11009MPS CAVOK 22/01 Q1025 R06/010070 NOSIG

VFR

22°C / 2°C

[Più]
Vento 120º 16kt
Visibilità >10km
Tempo -
Nuvole Clouds and Visibility OK
Pressione 1025
Cambiamento No Significant change. Runway 06: Clear and dry, 1-10% contamination with <1mm, friction coefficient 0.70.
Grezzo URWW 130800Z 12008MPS CAVOK 22/02 Q1025 R06/010070 NOSIG

VFR

20°C / 1°C

[Più]
Vento 120º 14kt
Visibilità >10km
Tempo -
Nuvole Clouds and Visibility OK
Pressione 1025
Cambiamento No Significant change. Runway 06: Clear and dry, 1-10% contamination with <1mm, friction coefficient 0.70.
Grezzo URWW 130730Z 12007MPS CAVOK 20/01 Q1025 R06/010070 NOSIG

TAF per 48.78°N 44.34°E (URWW)

From till


From till Wind 80º 10kt. Gust 19kt. Visibility 10km or more. Broken Clouds 2000ft.
Temporarly from till Wind 110º 12kt. Gust 21kt.

Grezzo: TAF URWW 131658Z 1318/1403 08005G10MPS 9999 BKN020 TEMPO 1318/1403 11006G11MPS

Tempo in atto per 48.78°N 44.34°E: immagine satellitare e pioggia

Il segnaposto è situato a 48.78°N 44.34°E. [Più]

L'immagine satellitare in tempo reale combina la luce visibile durante il giorno con la radiazione infrarossa durante la notte. Di notte l'immagine non è scura poiché i raggi infrarossi possono rilevare differenze di temperatura. Purtroppo, le nuvole basse e la nebbia sono difficili da distinguere dalla temperatura del suolo e possono pertanto essere quasi invisibili durante la notte. Le immagini satellitari Meteosat per l'Europa vengono aggiornate in tempo reale ogni 5 minuti. Le immagini GOES-16 / GOES-17 (Nord e Sud America) e Himawari (Asia) vengono aggiornate ogni 10 minuti.

Copyright 2021 EUMETSAT / meteoblue. / Copyright 2021 meteoblue

Radar e nowcasting per 48.78°N 44.34°E

Il segnaposto è situato a 48.78°N 44.34°E. Questa animazione mostra il radar delle precipitazioni per l'ultima ora, nonché una previsione 1h. Il radar può non individuare correttamente pioviggine o nevischio. L’intensità delle precipitazioni è associata a una scala di colori, dal blu chiaro fino al viola scuro.